sensor_id;sensor_type;location;lat;lon;timestamp;pressure;altitude;pressure_sealevel;temperature
49154;BMP280;49455;52.252;9.124;2022-10-19T07:19:46;100842.72;;;11.19
49154;BMP280;49455;52.252;9.124;2022-10-19T07:24:47;100845.00;;;11.32
49154;BMP280;49455;52.252;9.124;2022-10-19T07:29:47;100847.00;;;11.39
49154;BMP280;49455;52.252;9.124;2022-10-19T07:34:48;100859.94;;;11.58
49154;BMP280;49455;52.252;9.124;2022-10-19T07:39:48;100865.34;;;11.64
49154;BMP280;49455;52.252;9.124;2022-10-19T07:49:51;100861.66;;;11.99
49154;BMP280;49455;52.252;9.124;2022-10-19T08:00:04;100854.00;;;12.02
49154;BMP280;49455;52.252;9.124;2022-10-19T08:05:12;100860.63;;;12.16
49154;BMP280;49455;52.252;9.124;2022-10-19T08:10:13;100853.22;;;12.25
49154;BMP280;49455;52.252;9.124;2022-10-19T08:15:13;100870.84;;;12.13
49154;BMP280;49455;52.252;9.124;2022-10-19T08:20:14;100864.84;;;11.92
49154;BMP280;49455;52.252;9.124;2022-10-19T08:25:14;100867.09;;;12.05
49154;BMP280;49455;52.252;9.124;2022-10-19T08:30:15;100850.50;;;12.22
49154;BMP280;49455;52.252;9.124;2022-10-19T08:35:15;100860.63;;;12.16
49154;BMP280;49455;52.252;9.124;2022-10-19T08:40:20;100850.84;;;12.31
49154;BMP280;49455;52.252;9.124;2022-10-19T08:45:57;100856.25;;;12.37
49154;BMP280;49455;52.252;9.124;2022-10-19T08:51:00;100858.03;;;12.38
49154;BMP280;49455;52.252;9.124;2022-10-19T09:12:12;100851.56;;;12.71
49154;BMP280;49455;52.252;9.124;2022-10-19T09:17:15;100847.03;;;12.66
49154;BMP280;49455;52.252;9.124;2022-10-19T09:22:46;100849.50;;;12.63
49154;BMP280;49455;52.252;9.124;2022-10-19T09:28:02;100830.25;;;12.78
49154;BMP280;49455;52.252;9.124;2022-10-19T09:33:15;100828.00;;;12.89
49154;BMP280;49455;52.252;9.124;2022-10-19T09:38:15;100842.66;;;12.87
49154;BMP280;49455;52.252;9.124;2022-10-19T09:43:16;100850.78;;;12.74
49154;BMP280;49455;52.252;9.124;2022-10-19T09:48:32;100853.91;;;13.10
49154;BMP280;49455;52.252;9.124;2022-10-19T09:53:34;100846.88;;;13.08
49154;BMP280;49455;52.252;9.124;2022-10-19T09:58:34;100848.59;;;13.07
49154;BMP280;49455;52.252;9.124;2022-10-19T10:03:37;100850.91;;;13.23
49154;BMP280;49455;52.252;9.124;2022-10-19T10:08:44;100848.41;;;13.26
49154;BMP280;49455;52.252;9.124;2022-10-19T10:13:49;100844.25;;;13.06
49154;BMP280;49455;52.252;9.124;2022-10-19T10:18:59;100846.84;;;13.06
49154;BMP280;49455;52.252;9.124;2022-10-19T10:24:09;100838.09;;;13.28
49154;BMP280;49455;52.252;9.124;2022-10-19T10:29:21;100829.09;;;13.43
49154;BMP280;49455;52.252;9.124;2022-10-19T10:39:29;100845.69;;;13.46
49154;BMP280;49455;52.252;9.124;2022-10-19T10:44:31;100837.78;;;13.69
49154;BMP280;49455;52.252;9.124;2022-10-19T10:49:34;100847.03;;;13.35
49154;BMP280;49455;52.252;9.124;2022-10-19T10:54:36;100837.09;;;13.24
49154;BMP280;49455;52.252;9.124;2022-10-19T11:10:29;100809.91;;;13.38
49154;BMP280;49455;52.252;9.124;2022-10-19T11:15:47;100819.53;;;13.42
49154;BMP280;49455;52.252;9.124;2022-10-19T11:21:03;100814.28;;;13.65
49154;BMP280;49455;52.252;9.124;2022-10-19T11:26:34;100808.00;;;13.59
49154;BMP280;49455;52.252;9.124;2022-10-19T11:31:43;100798.00;;;13.20
49154;BMP280;49455;52.252;9.124;2022-10-19T11:37:04;100795.78;;;13.30
49154;BMP280;49455;52.252;9.124;2022-10-19T12:03:39;100752.94;;;13.70
49154;BMP280;49455;52.252;9.124;2022-10-19T12:08:55;100745.88;;;13.92
49154;BMP280;49455;52.252;9.124;2022-10-19T12:14:05;100734.13;;;14.03
49154;BMP280;49455;52.252;9.124;2022-10-19T12:19:27;100734.66;;;13.93
49154;BMP280;49455;52.252;9.124;2022-10-19T12:24:30;100724.47;;;13.99
49154;BMP280;49455;52.252;9.124;2022-10-19T12:29:36;100719.06;;;13.94
49154;BMP280;49455;52.252;9.124;2022-10-19T12:39:55;100705.94;;;14.47
49154;BMP280;49455;52.252;9.124;2022-10-19T12:55:58;100694.81;;;15.49
49154;BMP280;49455;52.252;9.124;2022-10-19T13:01:01;100680.38;;;15.65
49154;BMP280;49455;52.252;9.124;2022-10-19T13:06:10;100663.78;;;14.91
49154;BMP280;49455;52.252;9.124;2022-10-19T13:11:13;100659.09;;;14.77
49154;BMP280;49455;52.252;9.124;2022-10-19T13:16:39;100648.72;;;14.79
49154;BMP280;49455;52.252;9.124;2022-10-19T13:22:29;100651.22;;;14.12
49154;BMP280;49455;52.252;9.124;2022-10-19T13:27:24;100642.22;;;14.30
49154;BMP280;49455;52.252;9.124;2022-10-19T13:32:38;100638.44;;;14.51
49154;BMP280;49455;52.252;9.124;2022-10-19T13:37:39;100647.41;;;14.62
49154;BMP280;49455;52.252;9.124;2022-10-19T13:42:40;100645.97;;;13.83
49154;BMP280;49455;52.252;9.124;2022-10-19T13:47:42;100652.03;;;14.11
49154;BMP280;49455;52.252;9.124;2022-10-19T13:58:35;100636.19;;;14.02
49154;BMP280;49455;52.252;9.124;2022-10-19T14:14:14;100624.78;;;13.97
49154;BMP280;49455;52.252;9.124;2022-10-19T14:24:33;100626.16;;;13.86
49154;BMP280;49455;52.252;9.124;2022-10-19T14:29:48;100613.66;;;13.46
49154;BMP280;49455;52.252;9.124;2022-10-19T14:34:50;100610.16;;;13.16
49154;BMP280;49455;52.252;9.124;2022-10-19T14:45:05;100603.88;;;13.10
49154;BMP280;49455;52.252;9.124;2022-10-19T14:50:10;100609.34;;;13.19
49154;BMP280;49455;52.252;9.124;2022-10-19T14:55:17;100610.59;;;13.03
49154;BMP280;49455;52.252;9.124;2022-10-19T15:00:22;100600.09;;;12.74
49154;BMP280;49455;52.252;9.124;2022-10-19T15:05:28;100591.75;;;12.83
49154;BMP280;49455;52.252;9.124;2022-10-19T15:10:41;100577.66;;;12.75
49154;BMP280;49455;52.252;9.124;2022-10-19T15:15:43;100573.75;;;12.87
49154;BMP280;49455;52.252;9.124;2022-10-19T15:20:43;100569.66;;;12.69
49154;BMP280;49455;52.252;9.124;2022-10-19T15:25:44;100576.75;;;12.74
49154;BMP280;49455;52.252;9.124;2022-10-19T15:30:56;100579.94;;;12.41
49154;BMP280;49455;52.252;9.124;2022-10-19T15:36:07;100567.72;;;12.38
49154;BMP280;49455;52.252;9.124;2022-10-19T15:41:16;100555.19;;;12.25
49154;BMP280;49455;52.252;9.124;2022-10-19T15:46:24;100560.56;;;12.06
49154;BMP280;49455;52.252;9.124;2022-10-19T15:56:27;100543.88;;;11.75
49154;BMP280;49455;52.252;9.124;2022-10-19T16:01:30;100549.78;;;11.71
49154;BMP280;49455;52.252;9.124;2022-10-19T16:06:32;100550.00;;;11.54
49154;BMP280;49455;52.252;9.124;2022-10-19T16:11:33;100550.16;;;11.37
49154;BMP280;49455;52.252;9.124;2022-10-19T16:16:33;100543.91;;;11.30
49154;BMP280;49455;52.252;9.124;2022-10-19T16:21:35;100533.13;;;11.20
49154;BMP280;49455;52.252;9.124;2022-10-19T16:26:35;100541.22;;;11.06
49154;BMP280;49455;52.252;9.124;2022-10-19T16:31:36;100535.09;;;10.82
49154;BMP280;49455;52.252;9.124;2022-10-19T16:36:37;100536.69;;;10.58
49154;BMP280;49455;52.252;9.124;2022-10-19T16:41:37;100526.81;;;10.49
49154;BMP280;49455;52.252;9.124;2022-10-19T16:46:38;100534.66;;;10.30
49154;BMP280;49455;52.252;9.124;2022-10-19T16:51:39;100526.78;;;10.27
49154;BMP280;49455;52.252;9.124;2022-10-19T16:56:46;100537.88;;;10.25
49154;BMP280;49455;52.252;9.124;2022-10-19T17:01:47;100542.81;;;10.20
49154;BMP280;49455;52.252;9.124;2022-10-19T17:06:47;100540.28;;;10.01
49154;BMP280;49455;52.252;9.124;2022-10-19T17:11:51;100537.84;;;10.04
49154;BMP280;49455;52.252;9.124;2022-10-19T17:16:51;100541.75;;;9.95
49154;BMP280;49455;52.252;9.124;2022-10-19T17:21:55;100545.16;;;9.94
49154;BMP280;49455;52.252;9.124;2022-10-19T17:26:56;100547.38;;;9.87
49154;BMP280;49455;52.252;9.124;2022-10-19T17:31:59;100535.56;;;9.92
49154;BMP280;49455;52.252;9.124;2022-10-19T17:37:00;100536.78;;;9.81
49154;BMP280;49455;52.252;9.124;2022-10-19T17:42:00;100543.69;;;9.82
49154;BMP280;49455;52.252;9.124;2022-10-19T17:47:01;100540.59;;;9.70
49154;BMP280;49455;52.252;9.124;2022-10-19T17:52:01;100535.19;;;9.64
49154;BMP280;49455;52.252;9.124;2022-10-19T17:57:04;100529.84;;;9.61
49154;BMP280;49455;52.252;9.124;2022-10-19T18:02:05;100523.78;;;9.59
49154;BMP280;49455;52.252;9.124;2022-10-19T18:07:06;100521.31;;;9.62
49154;BMP280;49455;52.252;9.124;2022-10-19T18:12:06;100518.00;;;9.65
49154;BMP280;49455;52.252;9.124;2022-10-19T18:17:07;100512.75;;;9.63
49154;BMP280;49455;52.252;9.124;2022-10-19T18:22:07;100505.84;;;9.62
49154;BMP280;49455;52.252;9.124;2022-10-19T18:27:08;100509.56;;;9.68
49154;BMP280;49455;52.252;9.124;2022-10-19T18:32:10;100500.94;;;9.68
49154;BMP280;49455;52.252;9.124;2022-10-19T18:37:11;100488.16;;;9.71
49154;BMP280;49455;52.252;9.124;2022-10-19T18:42:11;100482.03;;;9.69
49154;BMP280;49455;52.252;9.124;2022-10-19T18:47:12;100472.41;;;9.65
49154;BMP280;49455;52.252;9.124;2022-10-19T18:52:12;100460.34;;;9.64
49154;BMP280;49455;52.252;9.124;2022-10-19T18:57:12;100442.94;;;9.60
49154;BMP280;49455;52.252;9.124;2022-10-19T19:02:13;100425.88;;;9.64
49154;BMP280;49455;52.252;9.124;2022-10-19T19:07:13;100422.44;;;9.63
49154;BMP280;49455;52.252;9.124;2022-10-19T19:12:14;100416.59;;;9.67
49154;BMP280;49455;52.252;9.124;2022-10-19T19:17:15;100402.63;;;9.62
49154;BMP280;49455;52.252;9.124;2022-10-19T19:22:15;100403.56;;;9.64
49154;BMP280;49455;52.252;9.124;2022-10-19T19:27:16;100413.91;;;9.64
49154;BMP280;49455;52.252;9.124;2022-10-19T19:32:16;100417.16;;;9.60
49154;BMP280;49455;52.252;9.124;2022-10-19T19:37:17;100420.56;;;9.59
49154;BMP280;49455;52.252;9.124;2022-10-19T19:42:17;100423.94;;;9.58
49154;BMP280;49455;52.252;9.124;2022-10-19T19:47:18;100434.75;;;9.50
49154;BMP280;49455;52.252;9.124;2022-10-19T19:52:18;100430.03;;;9.40
49154;BMP280;49455;52.252;9.124;2022-10-19T19:57:19;100412.31;;;9.29
49154;BMP280;49455;52.252;9.124;2022-10-19T20:02:19;100404.44;;;9.26
49154;BMP280;49455;52.252;9.124;2022-10-19T20:07:19;100411.25;;;9.24
49154;BMP280;49455;52.252;9.124;2022-10-19T20:12:20;100399.84;;;9.19
49154;BMP280;49455;52.252;9.124;2022-10-19T20:17:20;100397.16;;;9.16
49154;BMP280;49455;52.252;9.124;2022-10-19T20:22:21;100406.78;;;9.20
49154;BMP280;49455;52.252;9.124;2022-10-19T20:27:21;100404.81;;;9.14
49154;BMP280;49455;52.252;9.124;2022-10-19T20:32:22;100404.47;;;9.07
49154;BMP280;49455;52.252;9.124;2022-10-19T20:37:23;100410.41;;;9.05
49154;BMP280;49455;52.252;9.124;2022-10-19T20:42:23;100413.63;;;9.01
49154;BMP280;49455;52.252;9.124;2022-10-19T20:47:24;100410.09;;;8.99
49154;BMP280;49455;52.252;9.124;2022-10-19T20:52:25;100406.03;;;9.04
49154;BMP280;49455;52.252;9.124;2022-10-19T20:57:25;100405.84;;;8.99
49154;BMP280;49455;52.252;9.124;2022-10-19T21:02:25;100390.38;;;8.99
49154;BMP280;49455;52.252;9.124;2022-10-19T21:07:26;100384.06;;;8.93
49154;BMP280;49455;52.252;9.124;2022-10-19T21:12:26;100388.22;;;8.89
49154;BMP280;49455;52.252;9.124;2022-10-19T21:17:27;100361.69;;;8.92
49154;BMP280;49455;52.252;9.124;2022-10-19T21:22:27;100362.03;;;8.80
49154;BMP280;49455;52.252;9.124;2022-10-19T21:27:28;100336.53;;;8.86
49154;BMP280;49455;52.252;9.124;2022-10-19T21:32:28;100325.22;;;8.83
49154;BMP280;49455;52.252;9.124;2022-10-19T21:37:28;100305.28;;;8.79
49154;BMP280;49455;52.252;9.124;2022-10-19T21:42:29;100289.88;;;8.80
49154;BMP280;49455;52.252;9.124;2022-10-19T21:47:29;100283.03;;;8.81
49154;BMP280;49455;52.252;9.124;2022-10-19T21:52:30;100278.75;;;8.81
49154;BMP280;49455;52.252;9.124;2022-10-19T21:57:30;100270.94;;;8.80
49154;BMP280;49455;52.252;9.124;2022-10-19T22:02:31;100275.09;;;8.76
49154;BMP280;49455;52.252;9.124;2022-10-19T22:07:31;100290.50;;;8.75
49154;BMP280;49455;52.252;9.124;2022-10-19T22:12:31;100290.44;;;8.74
